createdAt,value
2023-03-12T05:00:39.400Z,0.00
2023-03-12T05:01:40.227Z,1.00
2023-03-12T05:02:40.250Z,1.00
2023-03-12T05:03:40.286Z,2.00
2023-03-12T05:04:40.227Z,5.00
2023-03-12T05:05:40.164Z,1.00
2023-03-12T05:06:40.170Z,1.00
2023-03-12T05:07:40.151Z,4.00
2023-03-12T05:08:40.182Z,6.00
2023-03-12T05:09:40.147Z,3.00
2023-03-12T05:10:40.163Z,5.00
2023-03-12T05:11:40.155Z,7.00
2023-03-12T05:12:40.161Z,6.00
2023-03-12T05:13:40.095Z,11.00
2023-03-12T05:14:40.180Z,15.00
2023-03-12T05:15:40.098Z,15.00
2023-03-12T05:16:40.202Z,21.00
2023-03-12T05:17:40.082Z,19.00
2023-03-12T05:18:40.045Z,24.00
2023-03-12T05:19:40.037Z,31.00
2023-03-12T05:20:40.027Z,36.00
2023-03-12T05:21:40.062Z,39.00
2023-03-12T05:22:40.003Z,49.00
2023-03-12T05:23:39.986Z,55.00
2023-03-12T05:24:40.016Z,65.00
2023-03-12T05:25:39.967Z,75.00
2023-03-12T05:26:40.022Z,85.00
2023-03-12T05:27:39.970Z,94.00
2023-03-12T05:28:39.971Z,106.00
2023-03-12T05:29:39.958Z,116.00
2023-03-12T05:30:39.944Z,129.00
2023-03-12T05:31:39.975Z,139.00
2023-03-12T05:32:39.942Z,153.00
2023-03-12T05:33:39.892Z,169.00
2023-03-12T05:34:39.899Z,183.00
2023-03-12T05:35:39.975Z,197.00
2023-03-12T05:36:39.849Z,214.00
2023-03-12T05:37:39.835Z,230.00
2023-03-12T05:38:40.354Z,249.00
2023-03-12T05:39:39.841Z,271.00
2023-03-12T05:40:39.849Z,285.00
2023-03-12T05:41:39.843Z,305.00
2023-03-12T05:42:39.804Z,321.00
2023-03-12T05:43:39.835Z,346.00
2023-03-12T05:44:39.792Z,360.00
2023-03-12T05:45:39.885Z,382.00
2023-03-12T05:46:39.773Z,406.00
2023-03-12T05:47:39.771Z,429.00
2023-03-12T05:48:39.728Z,403.00
2023-03-12T05:49:39.744Z,294.00
2023-03-12T05:50:39.712Z,369.00
2023-03-12T05:51:39.713Z,550.00
2023-03-12T05:52:39.699Z,571.00
2023-03-12T05:53:39.671Z,517.00
2023-03-12T05:54:39.700Z,352.00
2023-03-12T05:55:39.700Z,523.00
2023-03-12T05:56:39.661Z,810.00
2023-03-12T05:57:39.673Z,1296.00
2023-03-12T05:58:39.612Z,2086.00
2023-03-12T05:59:39.616Z,2029.00
2023-03-12T06:00:39.590Z,1615.00
2023-03-12T06:01:39.597Z,1507.00
2023-03-12T06:02:39.794Z,1087.00
2023-03-12T06:03:39.606Z,943.00
2023-03-12T06:04:39.572Z,1153.00
2023-03-12T06:05:39.534Z,899.00
2023-03-12T06:06:40.021Z,974.00
2023-03-12T06:07:39.540Z,1078.00
2023-03-12T06:08:39.514Z,1404.00
2023-03-12T06:09:39.522Z,1143.00
2023-03-12T06:10:39.528Z,1649.00
2023-03-12T06:11:39.501Z,2226.00
2023-03-12T06:12:39.473Z,2281.00
2023-03-12T06:13:39.453Z,1986.00
2023-03-12T06:14:39.448Z,2019.00
2023-03-12T06:15:39.444Z,2526.00
2023-03-12T06:16:39.467Z,2769.00
2023-03-12T06:17:39.424Z,2132.00
2023-03-12T06:18:39.408Z,1950.00
2023-03-12T06:19:39.406Z,3465.00
2023-03-12T06:20:39.386Z,3628.00
2023-03-12T06:21:39.360Z,2019.00
2023-03-12T06:22:39.397Z,2266.00
2023-03-12T06:23:39.389Z,4132.00
2023-03-12T06:24:39.341Z,3825.00
2023-03-12T06:25:39.325Z,5283.00
2023-03-12T06:26:39.312Z,3415.00
2023-03-12T06:27:39.323Z,4411.00
2023-03-12T06:28:39.279Z,7832.00
2023-03-12T06:29:39.292Z,7139.00
2023-03-12T06:30:39.288Z,6168.00
2023-03-12T06:31:39.344Z,5723.00
2023-03-12T06:32:39.269Z,4609.00
2023-03-12T06:33:39.261Z,8762.00
2023-03-12T06:34:39.247Z,8697.00
2023-03-12T06:35:39.224Z,7867.00
2023-03-12T06:36:39.227Z,4580.00
2023-03-12T06:37:39.208Z,9509.00
2023-03-12T06:38:39.210Z,6656.00
2023-03-12T06:39:39.177Z,5785.00
2023-03-12T06:40:39.158Z,5193.00
2023-03-12T06:41:39.143Z,5345.00
2023-03-12T06:42:39.162Z,7696.00
2023-03-12T06:43:39.157Z,6601.00
2023-03-12T06:44:39.155Z,7187.00
2023-03-12T06:45:39.098Z,6123.00
2023-03-12T06:46:39.187Z,8283.00
2023-03-12T06:49:21.302Z,7674.00
2023-03-12T06:49:50.600Z,7866.00
2023-03-12T06:50:50.593Z,6861.00
2023-03-12T06:51:50.602Z,8162.00
2023-03-12T06:52:50.589Z,8474.00
2023-03-12T06:53:50.585Z,7496.00
2023-03-12T06:54:50.699Z,9324.00
2023-03-12T06:55:50.532Z,4492.00
2023-03-12T06:56:50.529Z,10737.00
2023-03-12T06:57:50.539Z,6807.00
2023-03-12T06:58:50.564Z,7157.00
2023-03-12T06:59:50.810Z,9099.00
2023-03-12T07:00:50.515Z,5870.00
2023-03-12T07:01:50.540Z,6879.00
2023-03-12T07:02:50.485Z,5265.00
2023-03-12T07:03:50.469Z,6427.00
2023-03-12T07:04:50.561Z,5148.00
2023-03-12T07:05:50.447Z,4017.00
2023-03-12T07:06:50.433Z,4824.00
2023-03-12T07:07:50.408Z,7045.00
2023-03-12T07:08:50.410Z,11900.00
2023-03-12T07:09:50.403Z,9252.00
2023-03-12T07:10:50.396Z,10283.00
2023-03-12T07:11:50.381Z,11255.00
2023-03-12T07:12:50.350Z,7256.00
2023-03-12T07:13:50.362Z,5657.00
2023-03-12T07:14:50.332Z,5132.00
2023-03-12T07:15:50.411Z,5401.00
2023-03-12T07:16:50.321Z,5724.00
2023-03-12T07:17:50.333Z,5590.00
2023-03-12T07:18:50.327Z,4628.00
2023-03-12T07:19:50.341Z,2921.00
2023-03-12T07:20:50.310Z,5409.00
2023-03-12T07:21:50.299Z,28799.00
2023-03-12T07:22:50.251Z,17102.00
2023-03-12T07:23:50.810Z,19276.00
2023-03-12T07:24:50.267Z,19195.00
2023-03-12T07:25:50.226Z,16653.00
2023-03-12T07:26:50.253Z,12768.00
2023-03-12T07:27:50.230Z,7489.00
2023-03-12T07:28:50.236Z,7345.00
2023-03-12T07:29:50.237Z,10447.00
2023-03-12T07:30:50.171Z,15229.00
2023-03-12T07:31:50.208Z,8652.00
2023-03-12T07:32:50.164Z,21326.00
2023-03-12T07:33:50.279Z,15092.00
2023-03-12T07:34:50.152Z,6606.00
2023-03-12T07:35:51.855Z,4030.00
2023-03-12T07:36:50.316Z,13406.00
2023-03-12T07:37:50.133Z,13331.00
2023-03-12T07:38:50.108Z,14366.00
2023-03-12T07:39:50.139Z,16576.00
2023-03-12T07:40:50.295Z,12142.00
2023-03-12T07:41:50.456Z,21733.00
2023-03-12T07:42:50.429Z,16188.00
2023-03-12T07:43:50.080Z,12162.00
2023-03-12T07:44:50.595Z,22745.00
2023-03-12T07:45:50.022Z,19609.00
2023-03-12T07:46:50.170Z,20472.00
2023-03-12T07:47:50.176Z,14164.00
2023-03-12T07:48:50.012Z,20985.00
2023-03-12T07:49:50.743Z,18614.00
2023-03-12T07:50:49.992Z,19536.00
2023-03-12T07:51:50.272Z,19153.00
2023-03-12T07:52:49.916Z,20060.00
2023-03-12T07:53:50.486Z,20932.00
2023-03-12T07:54:50.262Z,20402.00
2023-03-12T07:55:50.321Z,24327.00
2023-03-12T07:56:50.013Z,28940.00
2023-03-12T07:57:49.937Z,29439.00
2023-03-12T07:58:50.018Z,20132.00
2023-03-12T07:59:50.166Z,9358.00
2023-03-12T08:00:50.426Z,8057.00
2023-03-12T08:01:50.066Z,9027.00
2023-03-12T08:02:50.320Z,2137.00
2023-03-12T08:03:50.111Z,6409.00
2023-03-12T08:04:49.832Z,7932.00
2023-03-12T08:05:50.095Z,19588.00
2023-03-12T08:06:49.824Z,22055.00
2023-03-12T08:07:49.769Z,26279.00
2023-03-12T08:08:49.931Z,19688.00
2023-03-12T08:09:50.041Z,22294.00
2023-03-12T08:10:51.194Z,14913.00
2023-03-12T08:11:50.327Z,9709.00
2023-03-12T08:12:49.941Z,6515.00
2023-03-12T08:13:49.969Z,4478.00
2023-03-12T08:14:49.954Z,4540.00
2023-03-12T08:15:49.759Z,4280.00
2023-03-12T08:16:50.016Z,3122.00
2023-03-12T08:17:49.775Z,4970.00
2023-03-12T08:18:50.066Z,5662.00
2023-03-12T08:19:49.662Z,8521.00
2023-03-12T08:20:50.078Z,10967.00
2023-03-12T08:21:50.031Z,8533.00
2023-03-12T08:22:49.705Z,16095.00
2023-03-12T08:23:49.978Z,15499.00
2023-03-12T08:24:49.660Z,9477.00
2023-03-12T08:25:49.612Z,5448.00
2023-03-12T08:26:49.607Z,15493.00
2023-03-12T08:27:49.807Z,14204.00
2023-03-12T08:28:49.616Z,19003.00
2023-03-12T08:29:49.773Z,20928.00
2023-03-12T08:30:49.703Z,25960.00
2023-03-12T08:32:03.691Z,21184.00
2023-03-12T08:32:49.553Z,14875.00
2023-03-12T08:33:49.567Z,12978.00
2023-03-12T08:34:49.544Z,22719.00
2023-03-12T08:35:49.536Z,20892.00
2023-03-12T08:36:49.556Z,24333.00
2023-03-12T08:37:49.445Z,29037.00
2023-03-12T08:38:49.466Z,29172.00
2023-03-12T08:39:49.434Z,33922.00
2023-03-12T08:40:49.459Z,27478.00
2023-03-12T08:41:49.455Z,22322.00
2023-03-12T08:42:49.410Z,27065.00
2023-03-12T08:43:49.379Z,24710.00
2023-03-12T08:44:49.425Z,20351.00
2023-03-12T08:45:49.362Z,12308.00
2023-03-12T08:46:49.353Z,18492.00
2023-03-12T08:47:49.353Z,20720.00
2023-03-12T08:48:49.323Z,16476.00
2023-03-12T08:49:49.342Z,14946.00
2023-03-12T08:50:49.305Z,15638.00
2023-03-12T08:51:49.281Z,21709.00
2023-03-12T08:52:49.290Z,8322.00
2023-03-12T08:53:49.264Z,21887.00
2023-03-12T08:54:49.384Z,22261.00
2023-03-12T08:55:49.232Z,23356.00
2023-03-12T08:56:49.233Z,16513.00
2023-03-12T08:57:49.227Z,10795.00
2023-03-12T08:58:49.212Z,8045.00
2023-03-12T08:59:49.212Z,6081.00
2023-03-12T09:00:49.185Z,6204.00
2023-03-12T09:01:49.211Z,5906.00
2023-03-12T09:02:49.387Z,6013.00
2023-03-12T09:03:49.146Z,6294.00
2023-03-12T09:04:49.277Z,7075.00
2023-03-12T09:05:49.126Z,4967.00
2023-03-12T09:06:49.180Z,3134.00
2023-03-12T09:07:49.105Z,5595.00
2023-03-12T09:08:49.115Z,20212.00
2023-03-12T09:09:49.222Z,32112.00
2023-03-12T09:10:49.115Z,32947.00
2023-03-12T09:11:49.078Z,12609.00
2023-03-12T09:12:49.403Z,6289.00
2023-03-12T09:15:05.197Z,25655.00
2023-03-12T09:15:49.099Z,75200.00
2023-03-12T09:16:49.081Z,75520.00
2023-03-12T09:17:48.992Z,73317.00
2023-03-12T09:18:49.010Z,37732.00
2023-03-12T09:19:48.985Z,30405.00
2023-03-12T09:20:48.959Z,18574.00
2023-03-12T09:21:48.972Z,10541.00
2023-03-12T09:22:49.001Z,11446.00
2023-03-12T09:23:48.927Z,7745.00
2023-03-12T09:24:50.350Z,11178.00
2023-03-12T09:25:48.944Z,11538.00
2023-03-12T09:26:48.922Z,27321.00
2023-03-12T09:27:48.912Z,27528.00
2023-03-12T09:28:48.903Z,32056.00
2023-03-12T09:29:59.323Z,29499.00
2023-03-12T09:30:48.926Z,13711.00
2023-03-12T09:31:48.849Z,6951.00
2023-03-12T09:32:48.925Z,4144.00
2023-03-12T09:33:48.821Z,14296.00
2023-03-12T09:34:48.823Z,33906.00
2023-03-12T09:41:31.561Z,12953.00
2023-03-12T09:42:31.293Z,11778.00
2023-03-12T09:43:31.270Z,13752.00
2023-03-12T09:44:31.277Z,12744.00
2023-03-12T09:45:31.262Z,18779.00
2023-03-12T09:46:31.266Z,9612.00
2023-03-12T09:47:31.230Z,27817.00
2023-03-12T09:48:31.242Z,19894.00
2023-03-12T09:49:31.276Z,13916.00
2023-03-12T09:50:31.267Z,11157.00
2023-03-12T09:51:31.191Z,9066.00
2023-03-12T09:52:31.198Z,7889.00
2023-03-12T09:53:31.201Z,7013.00
2023-03-12T09:54:31.178Z,6690.00
2023-03-12T09:55:31.223Z,6312.00
2023-03-12T09:56:31.166Z,6203.00
2023-03-12T09:57:31.122Z,5944.00
2023-03-12T09:58:31.125Z,6732.00
2023-03-12T09:59:31.109Z,5284.00
2023-03-12T10:00:31.110Z,5005.00
2023-03-12T10:01:31.090Z,15939.00
2023-03-12T10:02:31.089Z,20074.00
2023-03-12T10:03:31.073Z,19072.00
2023-03-12T10:04:31.117Z,10255.00
2023-03-12T10:05:31.046Z,17384.00
2023-03-12T10:06:31.128Z,21395.00
2023-03-12T10:07:31.014Z,21247.00
2023-03-12T10:08:31.602Z,16795.00
2023-03-12T10:09:31.043Z,20831.00
2023-03-12T10:10:30.998Z,17809.00
2023-03-12T10:11:30.976Z,21195.00
2023-03-12T10:12:30.982Z,24798.00
2023-03-12T10:13:31.028Z,29121.00
2023-03-12T10:14:30.973Z,26529.00
2023-03-12T10:15:30.999Z,5057.00
2023-03-12T10:16:30.957Z,30381.00
2023-03-12T10:17:30.941Z,27240.00
2023-03-12T10:18:31.044Z,20578.00
2023-03-12T10:19:30.912Z,34366.00
2023-03-12T10:20:30.907Z,25758.00
2023-03-12T10:21:30.867Z,21726.00
2023-03-12T10:22:30.927Z,26493.00
2023-03-12T10:23:30.856Z,28210.00
2023-03-12T10:24:30.896Z,74070.00
2023-03-12T10:25:30.817Z,68065.00
2023-03-12T10:26:30.854Z,22062.00
2023-03-12T10:27:30.809Z,30838.00
2023-03-12T10:28:30.812Z,24155.00
2023-03-12T10:29:30.782Z,28369.00
2023-03-12T10:30:30.822Z,15965.00
2023-03-12T10:31:30.867Z,19729.00
2023-03-12T10:32:30.791Z,28676.00
2023-03-12T10:33:30.739Z,27746.00
2023-03-12T10:34:30.746Z,18187.00
2023-03-12T10:35:30.857Z,17502.00
2023-03-12T10:36:30.721Z,16374.00
2023-03-12T10:37:30.761Z,12319.00
2023-03-12T10:38:30.690Z,24303.00
2023-03-12T10:39:30.679Z,19289.00
2023-03-12T10:40:30.653Z,20606.00
2023-03-12T10:41:33.411Z,22633.00
2023-03-12T10:42:30.660Z,32714.00
2023-03-12T10:43:30.631Z,19917.00
2023-03-12T10:44:30.612Z,33196.00
2023-03-12T10:45:30.663Z,18320.00
2023-03-12T10:46:32.743Z,23814.00
2023-03-12T10:47:30.617Z,19898.00
2023-03-12T10:48:30.630Z,25690.00
2023-03-12T10:49:31.456Z,24790.00
2023-03-12T10:50:30.553Z,24437.00
2023-03-12T10:51:30.549Z,23132.00
2023-03-12T10:52:30.582Z,26975.00
2023-03-12T10:53:30.600Z,76075.00
2023-03-12T10:54:30.507Z,78269.00
2023-03-12T10:55:30.508Z,79523.00
2023-03-12T10:56:30.493Z,80370.00
2023-03-12T10:57:30.508Z,81887.00
2023-03-12T10:58:30.489Z,82877.00
2023-03-12T10:59:30.486Z,80825.00
2023-03-12T11:00:30.465Z,68756.00
2023-03-12T11:01:30.487Z,19084.00
2023-03-12T11:04:51.500Z,24390.00
2023-03-12T11:05:52.509Z,27443.00
2023-03-12T11:06:52.410Z,16225.00
2023-03-12T11:07:52.405Z,19786.00
2023-03-12T11:08:55.023Z,14309.00
2023-03-12T11:09:52.403Z,8691.00
2023-03-12T11:10:52.386Z,12618.00
2023-03-12T11:11:52.347Z,25015.00
2023-03-12T11:12:52.356Z,10554.00
2023-03-12T11:13:52.364Z,21502.00
2023-03-12T11:14:52.333Z,13673.00
2023-03-12T11:15:52.356Z,11920.00
2023-03-12T11:16:52.311Z,18086.00
2023-03-12T11:17:52.291Z,12826.00
2023-03-12T11:18:52.402Z,7675.00
2023-03-12T11:19:52.406Z,15146.00
2023-03-12T11:20:52.251Z,14111.00
2023-03-12T11:21:52.247Z,14331.00
2023-03-12T11:22:52.235Z,6591.00
2023-03-12T11:23:52.239Z,21764.00
2023-03-12T11:24:52.226Z,4859.00
2023-03-12T11:25:52.212Z,27385.00
2023-03-12T11:26:52.222Z,15321.00
2023-03-12T11:27:52.173Z,21565.00
2023-03-12T11:34:43.285Z,12275.00
2023-03-12T11:35:44.343Z,13199.00
2023-03-12T11:36:44.245Z,12277.00
2023-03-12T11:37:44.233Z,11046.00
2023-03-12T11:38:44.256Z,9101.00
2023-03-12T11:39:44.204Z,9145.00
2023-03-12T11:40:44.193Z,7695.00
2023-03-12T11:41:44.224Z,9209.00
2023-03-12T11:42:44.185Z,12629.00
2023-03-12T11:43:44.479Z,15449.00
2023-03-12T11:44:44.169Z,12539.00
2023-03-12T11:45:44.192Z,10270.00
2023-03-12T11:46:44.153Z,13337.00
2023-03-12T11:47:44.246Z,10218.00
2023-03-12T11:48:44.137Z,8667.00
2023-03-12T11:49:44.115Z,7650.00
2023-03-12T11:50:44.108Z,6523.00
2023-03-12T11:51:44.075Z,5841.00
2023-03-12T11:52:44.064Z,5753.00
2023-03-12T11:53:44.077Z,5303.00
2023-03-12T11:54:44.073Z,5581.00
2023-03-12T11:55:44.045Z,6876.00
2023-03-12T11:56:44.061Z,7740.00
2023-03-12T11:57:44.030Z,7377.00
2023-03-12T11:58:43.999Z,6524.00
2023-03-12T11:59:44.015Z,5808.00
2023-03-12T12:00:45.849Z,8205.00
2023-03-12T12:01:44.090Z,9520.00
2023-03-12T12:02:43.960Z,8861.00
2023-03-12T12:03:43.991Z,9145.00
2023-03-12T12:04:43.926Z,8806.00
2023-03-12T12:05:43.943Z,8784.00
2023-03-12T12:06:45.294Z,9161.00
2023-03-12T12:07:43.953Z,18363.00
2023-03-12T12:08:43.884Z,18687.00
2023-03-12T12:09:43.886Z,11856.00
2023-03-12T12:10:43.934Z,13959.00
2023-03-12T12:11:43.863Z,9945.00
2023-03-12T12:12:43.881Z,8648.00
2023-03-12T12:13:43.883Z,9022.00
2023-03-12T12:14:43.814Z,7908.00
2023-03-12T12:15:43.844Z,8186.00
2023-03-12T12:16:43.872Z,6955.00
2023-03-12T12:17:43.808Z,6236.00
2023-03-12T12:18:43.803Z,5608.00
2023-03-12T12:19:43.826Z,5617.00
2023-03-12T12:20:43.755Z,5479.00
2023-03-12T12:21:43.786Z,5278.00
2023-03-12T12:22:43.775Z,5488.00
2023-03-12T12:23:43.738Z,7772.00
2023-03-12T12:24:43.702Z,7845.00
2023-03-12T12:25:43.749Z,6357.00
2023-03-12T12:26:43.687Z,5969.00
2023-03-12T12:27:43.722Z,10544.00
2023-03-12T12:28:43.699Z,9112.00
2023-03-12T12:29:43.651Z,6950.00
2023-03-12T12:30:43.672Z,5916.00
2023-03-12T12:31:43.754Z,5212.00
2023-03-12T12:32:43.717Z,5279.00
2023-03-12T12:33:43.618Z,6072.00
2023-03-12T12:34:43.594Z,6538.00
2023-03-12T12:35:43.624Z,5712.00
2023-03-12T12:36:43.588Z,5259.00
2023-03-12T12:37:43.606Z,5352.00
2023-03-12T12:38:43.561Z,5419.00
2023-03-12T12:39:45.925Z,5106.00
2023-03-12T12:40:43.555Z,5079.00
2023-03-12T12:41:43.539Z,5205.00
2023-03-12T12:42:43.530Z,5126.00
2023-03-12T12:43:43.551Z,4952.00
2023-03-12T12:44:43.503Z,5027.00
2023-03-12T12:45:43.531Z,5410.00
2023-03-12T12:46:43.514Z,5538.00
2023-03-12T12:47:43.465Z,5753.00
2023-03-12T12:48:43.458Z,6843.00
2023-03-12T12:49:43.497Z,7137.00
2023-03-12T12:50:43.494Z,6552.00
2023-03-12T12:51:43.467Z,6253.00
2023-03-12T12:52:43.407Z,6259.00
2023-03-12T12:53:43.403Z,6862.00
2023-03-12T12:54:43.398Z,8397.00
2023-03-12T12:55:43.365Z,6434.00
2023-03-12T12:56:43.368Z,11667.00
2023-03-12T12:57:43.405Z,10107.00
2023-03-12T12:58:43.342Z,7764.00
2023-03-12T12:59:43.377Z,6637.00
2023-03-12T13:00:43.362Z,6269.00
2023-03-12T13:01:43.420Z,6014.00
2023-03-12T13:02:43.310Z,5483.00
2023-03-12T13:03:43.342Z,4933.00
2023-03-12T13:04:43.289Z,4596.00
2023-03-12T13:05:43.308Z,4315.00
2023-03-12T13:06:43.306Z,4170.00
2023-03-12T13:07:43.899Z,4128.00
2023-03-12T13:08:43.271Z,3904.00
2023-03-12T13:09:43.232Z,3628.00
2023-03-12T13:10:53.058Z,3497.00
2023-03-12T13:11:43.234Z,3437.00
2023-03-12T13:12:43.233Z,3442.00
2023-03-12T13:13:43.184Z,3574.00
2023-03-12T13:14:43.185Z,3742.00
2023-03-12T13:15:43.189Z,4030.00
2023-03-12T13:16:43.269Z,4137.00
2023-03-12T13:17:43.221Z,4021.00
2023-03-12T13:18:43.202Z,4088.00
2023-03-12T13:19:51.995Z,3822.00
2023-03-12T13:20:43.148Z,3677.00
2023-03-12T13:21:43.102Z,3787.00
2023-03-12T13:22:43.151Z,3740.00
2023-03-12T13:23:43.153Z,3389.00
2023-03-12T13:24:43.116Z,3103.00
2023-03-12T13:25:43.120Z,2841.00
2023-03-12T13:26:43.060Z,2798.00
2023-03-12T13:27:43.066Z,2978.00
2023-03-12T13:28:44.479Z,3028.00
2023-03-12T13:29:43.001Z,3040.00
2023-03-12T13:30:43.014Z,3072.00
2023-03-12T13:31:43.003Z,3072.00
2023-03-12T13:32:43.056Z,2977.00
2023-03-12T13:33:42.985Z,2867.00
2023-03-12T13:34:43.059Z,2806.00
2023-03-12T13:35:43.077Z,2717.00
2023-03-12T13:36:42.972Z,2562.00
2023-03-12T13:37:42.988Z,2489.00
2023-03-12T13:38:42.926Z,2495.00
2023-03-12T13:39:42.887Z,2477.00
2023-03-12T13:40:42.901Z,2450.00
2023-03-12T13:41:42.880Z,2467.00
2023-03-12T13:42:42.938Z,2494.00
2023-03-12T13:43:42.903Z,2549.00
2023-03-12T13:44:42.876Z,2618.00
2023-03-12T13:45:42.829Z,2635.00
2023-03-12T13:46:42.899Z,2633.00
2023-03-12T13:47:42.819Z,2533.00
2023-03-12T13:48:42.825Z,2423.00
2023-03-12T13:49:42.778Z,2344.00
2023-03-12T13:50:42.810Z,2376.00
2023-03-12T13:51:42.864Z,2593.00
2023-03-12T13:52:42.774Z,2935.00
2023-03-12T13:53:42.771Z,3233.00
2023-03-12T13:54:42.786Z,3380.00
2023-03-12T13:55:42.724Z,3297.00
2023-03-12T13:56:42.780Z,3074.00
2023-03-12T13:57:42.695Z,2831.00
2023-03-12T13:58:42.702Z,2489.00
2023-03-12T13:59:42.712Z,2096.00
2023-03-12T14:00:42.747Z,1884.00
2023-03-12T14:01:42.708Z,1978.00
2023-03-12T14:02:42.661Z,2272.00
2023-03-12T14:03:42.673Z,2488.00
2023-03-12T14:04:42.747Z,2559.00
2023-03-12T14:05:42.705Z,2427.00
2023-03-12T14:06:42.619Z,2223.00
2023-03-12T14:07:42.638Z,2131.00
2023-03-12T14:08:42.651Z,2311.00
2023-03-12T14:09:42.572Z,2554.00
2023-03-12T14:10:42.646Z,2698.00
2023-03-12T14:11:42.556Z,2720.00
2023-03-12T14:12:42.587Z,2822.00
2023-03-12T14:13:42.519Z,3341.00
2023-03-12T14:14:42.570Z,3791.00
2023-03-12T14:15:42.578Z,4053.00
2023-03-12T14:16:42.547Z,3905.00
2023-03-12T14:17:42.486Z,3490.00
2023-03-12T14:18:42.497Z,2909.00
2023-03-12T14:19:42.444Z,2583.00
2023-03-12T14:20:42.462Z,2559.00
2023-03-12T14:21:42.481Z,2557.00
2023-03-12T14:22:42.417Z,2463.00
2023-03-12T14:23:42.404Z,2261.00
2023-03-12T14:24:42.408Z,2163.00
2023-03-12T14:25:42.437Z,2199.00
2023-03-12T14:26:42.403Z,2309.00
2023-03-12T14:27:42.357Z,2352.00
2023-03-12T14:28:42.397Z,2365.00
2023-03-12T14:29:42.365Z,2247.00
2023-03-12T14:30:42.344Z,2102.00
2023-03-12T14:31:42.498Z,1960.00
2023-03-12T14:32:42.355Z,1824.00
2023-03-12T14:33:42.302Z,1899.00
2023-03-12T14:34:42.300Z,2148.00
2023-03-12T14:35:42.603Z,2265.00
2023-03-12T14:36:42.291Z,2068.00
2023-03-12T14:37:42.243Z,1877.00
2023-03-12T14:38:42.303Z,1728.00
2023-03-12T14:39:42.232Z,1620.00
2023-03-12T14:40:42.243Z,1556.00
2023-03-12T14:41:42.981Z,1426.00
2023-03-12T14:42:42.208Z,1224.00
2023-03-12T14:43:42.194Z,1096.00
2023-03-12T14:44:42.204Z,1075.00
2023-03-12T14:45:42.170Z,1066.00
2023-03-12T14:46:42.238Z,1045.00
2023-03-12T14:47:42.171Z,1023.00
2023-03-12T14:48:42.189Z,1042.00
2023-03-12T14:49:42.169Z,1039.00
2023-03-12T14:50:42.120Z,1015.00
2023-03-12T14:51:42.223Z,1105.00
2023-03-12T14:52:42.096Z,1348.00
2023-03-12T14:53:42.078Z,1654.00
2023-03-12T14:54:42.117Z,1873.00
2023-03-12T14:55:42.118Z,1934.00
2023-03-12T14:56:43.428Z,1862.00
2023-03-12T14:57:42.052Z,1731.00
2023-03-12T14:58:42.038Z,1686.00
2023-03-12T14:59:42.020Z,1646.00
2023-03-12T15:00:42.025Z,1542.00
2023-03-12T15:01:42.085Z,1410.00
2023-03-12T15:02:42.047Z,1380.00
2023-03-12T15:03:41.986Z,1431.00
2023-03-12T15:04:42.038Z,1460.00
2023-03-12T15:05:41.954Z,1471.00
2023-03-12T15:06:41.963Z,1560.00
2023-03-12T15:07:41.939Z,1710.00
2023-03-12T15:08:41.974Z,1770.00
2023-03-12T15:09:41.956Z,1706.00
2023-03-12T15:10:43.300Z,1783.00
2023-03-12T15:11:41.936Z,1966.00
2023-03-12T15:12:42.056Z,2012.00
2023-03-12T15:13:41.893Z,1752.00
2023-03-12T15:14:41.855Z,1527.00
2023-03-12T15:15:41.901Z,1455.00
2023-03-12T15:16:41.857Z,1398.00
2023-03-12T15:17:41.876Z,1330.00
2023-03-12T15:18:42.903Z,1290.00
2023-03-12T15:19:41.913Z,1420.00
2023-03-12T15:20:41.796Z,1550.00
2023-03-12T15:21:41.827Z,1506.00
2023-03-12T15:22:41.837Z,1412.00
2023-03-12T15:23:42.396Z,1310.00
2023-03-12T15:24:41.820Z,1236.00
2023-03-12T15:25:41.781Z,1173.00
2023-03-12T15:26:41.756Z,1089.00
2023-03-12T15:27:41.965Z,966.00
2023-03-12T15:28:41.864Z,862.00
2023-03-12T15:29:41.779Z,873.00
2023-03-12T15:30:41.736Z,966.00
2023-03-12T15:31:41.749Z,1045.00
2023-03-12T15:32:41.770Z,1064.00
2023-03-12T15:33:41.696Z,1115.00
2023-03-12T15:34:41.661Z,1069.00
2023-03-12T15:35:41.687Z,931.00
2023-03-12T15:36:41.643Z,834.00
2023-03-12T15:37:41.762Z,808.00
2023-03-12T15:38:41.687Z,834.00
2023-03-12T15:39:41.682Z,838.00
2023-03-12T15:40:41.609Z,768.00
2023-03-12T15:41:41.557Z,702.00
2023-03-12T15:42:41.571Z,649.00
2023-03-12T15:43:41.545Z,601.00
2023-03-12T15:44:41.534Z,562.00
2023-03-12T15:45:41.628Z,473.00
2023-03-12T15:46:41.633Z,534.00
2023-03-12T15:47:41.501Z,638.00
2023-03-12T15:48:41.557Z,613.00
2023-03-12T15:49:41.478Z,533.00
2023-03-12T15:50:41.482Z,503.00
2023-03-12T15:51:43.500Z,510.00
2023-03-12T15:52:41.470Z,623.00
2023-03-12T15:53:41.504Z,691.00
2023-03-12T15:54:41.427Z,697.00
2023-03-12T15:55:41.429Z,721.00
2023-03-12T15:56:41.421Z,775.00
2023-03-12T15:57:41.438Z,823.00
2023-03-12T15:58:41.515Z,870.00
2023-03-12T15:59:41.423Z,881.00
2023-03-12T16:00:41.417Z,832.00
2023-03-12T16:01:41.408Z,730.00
2023-03-12T16:02:41.445Z,646.00
2023-03-12T16:03:41.341Z,604.00
2023-03-12T16:04:41.333Z,615.00
2023-03-12T16:05:41.345Z,622.00
2023-03-12T16:06:41.301Z,603.00
2023-03-12T16:07:41.332Z,579.00
2023-03-12T16:08:41.301Z,577.00
2023-03-12T16:09:41.249Z,534.00
2023-03-12T16:10:41.261Z,484.00
2023-03-12T16:11:41.248Z,452.00
2023-03-12T16:12:41.243Z,408.00
2023-03-12T16:13:41.215Z,357.00
2023-03-12T16:14:41.319Z,359.00
2023-03-12T16:15:41.207Z,407.00
2023-03-12T16:16:41.265Z,460.00
2023-03-12T16:17:41.194Z,469.00
2023-03-12T16:18:41.198Z,483.00
2023-03-12T16:19:41.266Z,498.00
2023-03-12T16:20:41.135Z,575.00
2023-03-12T16:21:41.172Z,570.00
2023-03-12T16:22:41.148Z,604.00
2023-03-12T16:23:41.099Z,598.00
2023-03-12T16:24:41.366Z,520.00
2023-03-12T16:25:41.094Z,457.00
2023-03-12T16:26:41.080Z,441.00
2023-03-12T16:27:41.085Z,436.00
2023-03-12T16:28:41.091Z,402.00
2023-03-12T16:29:41.069Z,368.00
2023-03-12T16:30:41.058Z,348.00
2023-03-12T16:31:41.100Z,318.00
2023-03-12T16:32:41.065Z,284.00
2023-03-12T16:33:41.077Z,254.00
2023-03-12T16:34:41.107Z,227.00
2023-03-12T16:35:41.002Z,192.00
2023-03-12T16:36:41.002Z,162.00
2023-03-12T16:37:40.946Z,139.00
2023-03-12T16:38:40.960Z,117.00
2023-03-12T16:39:40.939Z,101.00
2023-03-12T16:40:40.968Z,97.00
2023-03-12T16:41:40.922Z,114.00
2023-03-12T16:42:40.945Z,141.00
2023-03-12T16:43:40.912Z,152.00
2023-03-12T16:44:40.917Z,163.00
2023-03-12T16:45:40.947Z,164.00
2023-03-12T16:46:40.891Z,157.00
2023-03-12T16:47:40.838Z,140.00
2023-03-12T16:48:40.902Z,121.00
2023-03-12T16:49:40.852Z,118.00
2023-03-12T16:50:40.891Z,115.00
2023-03-12T16:51:40.832Z,126.00
2023-03-12T16:52:40.815Z,121.00
2023-03-12T16:53:40.770Z,115.00
2023-03-12T16:54:40.773Z,104.00
2023-03-12T16:55:40.806Z,85.00
2023-03-12T16:56:40.759Z,70.00
2023-03-12T16:57:40.770Z,66.00
2023-03-12T16:58:40.800Z,60.00
2023-03-12T16:59:40.769Z,55.00
2023-03-12T17:00:40.705Z,48.00
2023-03-12T17:01:40.744Z,43.00
2023-03-12T17:02:40.785Z,42.00
2023-03-12T17:03:40.692Z,39.00
2023-03-12T17:04:40.754Z,34.00
2023-03-12T17:05:40.646Z,31.00
2023-03-12T17:06:40.699Z,29.00
2023-03-12T17:07:40.625Z,26.00
2023-03-12T17:08:40.608Z,21.00
2023-03-12T17:09:40.653Z,20.00
2023-03-12T17:10:40.581Z,17.00
2023-03-12T17:11:40.591Z,13.00
2023-03-12T17:12:40.573Z,13.00
2023-03-12T17:13:40.557Z,12.00
2023-03-12T17:14:40.571Z,9.00
2023-03-12T17:15:40.573Z,9.00
2023-03-12T17:16:40.603Z,6.00
2023-03-12T17:17:40.536Z,7.00
2023-03-12T17:18:40.505Z,8.00
2023-03-12T17:19:40.506Z,6.00
2023-03-12T17:20:40.481Z,5.00
2023-03-12T17:21:40.462Z,3.00
2023-03-12T17:22:40.514Z,3.00
2023-03-12T17:23:40.449Z,2.00